createdAt,value
2018-02-13T00:00:16.975Z,26.45
2018-02-13T00:02:43.617Z,28.00
2018-02-13T00:05:10.257Z,30.08
2018-02-13T00:07:36.941Z,26.87
2018-02-13T00:10:03.554Z,27.50
2018-02-13T00:12:30.273Z,26.98
2018-02-13T00:14:56.885Z,27.65
2018-02-13T00:17:23.557Z,28.40
2018-02-13T00:19:50.189Z,28.70
2018-02-13T00:22:16.802Z,27.05
2018-02-13T00:24:43.417Z,30.55
2018-02-13T00:27:10.105Z,29.65
2018-02-13T00:29:36.749Z,28.10
2018-02-13T00:32:03.490Z,25.65
2018-02-13T00:34:30.101Z,24.95
2018-02-13T00:36:56.709Z,26.73
2018-02-13T00:39:23.344Z,27.05
2018-02-13T00:41:50.764Z,28.87
2018-02-13T00:44:17.401Z,26.52
2018-02-13T00:46:44.025Z,30.30
2018-02-13T00:49:10.694Z,28.42
2018-02-13T00:51:37.334Z,28.83
2018-02-13T00:54:03.958Z,27.80
2018-02-13T00:56:30.597Z,28.42
2018-02-13T00:58:57.225Z,26.25
2018-02-13T01:01:23.878Z,29.75
2018-02-13T01:03:50.502Z,27.50
2018-02-13T01:06:17.153Z,29.52
2018-02-13T01:08:43.765Z,25.92
2018-02-13T01:11:10.439Z,31.35
2018-02-13T01:13:37.078Z,28.08
2018-02-13T01:16:03.701Z,30.62
2018-02-13T01:18:30.317Z,27.77
2018-02-13T01:20:56.993Z,27.00
2018-02-13T01:23:23.729Z,26.90
2018-02-13T01:25:50.333Z,26.77
2018-02-13T01:28:17.011Z,28.42
2018-02-13T01:30:43.636Z,28.35
2018-02-13T01:33:10.287Z,28.27
2018-02-13T01:35:36.913Z,28.33
2018-02-13T01:38:03.526Z,26.73
2018-02-13T01:40:30.200Z,27.00
2018-02-13T01:42:56.824Z,27.00
2018-02-13T01:45:23.482Z,25.55
2018-02-13T01:47:50.110Z,28.62
2018-02-13T01:50:22.697Z,27.73
2018-02-13T01:52:49.329Z,29.75
2018-02-13T01:55:15.977Z,30.92
2018-02-13T01:57:42.589Z,27.15
2018-02-13T02:00:09.222Z,26.70
2018-02-13T02:02:35.897Z,25.60
2018-02-13T02:05:02.537Z,30.67
2018-02-13T02:07:29.170Z,27.35
2018-02-13T02:09:55.814Z,28.02
2018-02-13T02:12:22.456Z,28.10
2018-02-13T02:14:49.084Z,28.55
2018-02-13T02:17:15.693Z,27.92
2018-02-13T02:19:42.309Z,28.50
2018-02-13T02:22:08.947Z,26.48
2018-02-13T02:24:35.556Z,27.75
2018-02-13T02:27:02.174Z,27.08
2018-02-13T02:29:28.865Z,28.45
2018-02-13T02:31:55.473Z,26.90
2018-02-13T02:34:22.108Z,28.20
2018-02-13T02:36:48.726Z,29.15
2018-02-13T02:39:15.389Z,29.52
2018-02-13T02:41:42.021Z,28.95
2018-02-13T02:44:08.661Z,27.75
2018-02-13T02:46:35.273Z,29.02
2018-02-13T02:49:01.901Z,27.95
2018-02-13T02:51:28.573Z,26.15
2018-02-13T02:53:55.438Z,29.45
2018-02-13T02:56:22.161Z,28.15
2018-02-13T02:58:48.840Z,26.65
2018-02-13T03:01:15.543Z,27.37
2018-02-13T03:03:42.173Z,27.87
2018-02-13T03:06:08.785Z,26.30
2018-02-13T03:08:35.462Z,24.75
2018-02-13T03:11:02.199Z,26.20
2018-02-13T03:13:28.818Z,28.12
2018-02-13T03:15:55.434Z,28.73
2018-02-13T03:18:22.117Z,27.87
2018-02-13T03:20:48.738Z,28.67
2018-02-13T03:23:15.354Z,26.25
2018-02-13T03:25:42.033Z,28.52
2018-02-13T03:28:08.651Z,30.30
2018-02-13T03:30:35.270Z,30.98
2018-02-13T03:33:01.897Z,27.83
2018-02-13T03:35:28.512Z,28.45
2018-02-13T03:37:55.129Z,28.60
2018-02-13T03:40:21.761Z,29.27
2018-02-13T03:42:48.376Z,27.85
2018-02-13T03:45:14.989Z,29.52
2018-02-13T03:47:41.689Z,31.30
2018-02-13T03:50:08.307Z,29.23
2018-02-13T03:52:34.962Z,28.75
2018-02-13T03:55:01.705Z,27.08
2018-02-13T03:57:28.315Z,29.23
2018-02-13T03:59:54.929Z,27.48
2018-02-13T04:02:21.663Z,27.95
2018-02-13T04:04:48.269Z,27.23
2018-02-13T04:07:14.880Z,27.23
2018-02-13T04:09:41.513Z,26.17
2018-02-13T04:12:08.135Z,25.77
2018-02-13T04:14:34.745Z,26.25
2018-02-13T04:17:01.376Z,26.83
2018-02-13T04:19:28.002Z,27.00
2018-02-13T04:21:54.643Z,27.77
2018-02-13T04:24:21.270Z,27.98
2018-02-13T04:26:47.885Z,28.67
2018-02-13T04:29:14.501Z,28.75
2018-02-13T04:31:41.133Z,29.12
2018-02-13T04:34:07.745Z,29.15
2018-02-13T04:36:34.465Z,30.50
2018-02-13T04:39:01.085Z,29.20
2018-02-13T04:41:27.734Z,27.90
2018-02-13T04:43:54.361Z,29.52
2018-02-13T04:46:20.969Z,29.70
2018-02-13T04:48:47.761Z,31.08
2018-02-13T04:51:14.377Z,27.48
2018-02-13T04:53:41.054Z,31.40
2018-02-13T04:56:07.685Z,29.12
2018-02-13T04:58:34.294Z,29.40
2018-02-13T05:01:00.956Z,29.75
2018-02-13T05:03:27.581Z,31.10
2018-02-13T05:05:54.209Z,28.52
2018-02-13T05:08:20.835Z,28.40
2018-02-13T05:10:47.557Z,28.23
2018-02-13T05:13:14.193Z,28.33
2018-02-13T05:15:40.809Z,30.88
2018-02-13T05:18:07.428Z,28.48
2018-02-13T05:20:34.078Z,29.73
2018-02-13T05:23:00.712Z,28.27
2018-02-13T05:25:27.351Z,30.88
2018-02-13T05:27:53.966Z,29.90
2018-02-13T05:30:20.630Z,29.75
2018-02-13T05:32:47.241Z,28.38
2018-02-13T05:35:13.947Z,30.50
2018-02-13T05:37:40.587Z,29.50
2018-02-13T05:40:07.284Z,28.23
2018-02-13T05:42:33.921Z,30.33
2018-02-13T05:45:00.571Z,28.85
2018-02-13T05:47:27.311Z,32.30
2018-02-13T05:49:53.926Z,29.45
2018-02-13T05:52:20.540Z,30.70
2018-02-13T05:54:47.177Z,30.00
2018-02-13T05:57:13.785Z,31.08
2018-02-13T05:59:40.505Z,28.92
2018-02-13T06:02:07.183Z,30.75
2018-02-13T06:04:33.881Z,29.50
2018-02-13T06:07:00.512Z,33.20
2018-02-13T06:09:27.161Z,30.85
2018-02-13T06:11:53.786Z,31.85
2018-02-13T06:14:20.445Z,27.98
2018-02-13T06:16:47.062Z,30.37
2018-02-13T06:19:13.690Z,28.85
2018-02-13T06:21:40.302Z,28.80
2018-02-13T06:24:06.998Z,27.00
2018-02-13T06:26:33.614Z,30.75
2018-02-13T06:29:00.225Z,29.27
2018-02-13T06:31:26.853Z,29.85
2018-02-13T06:33:53.469Z,30.33
2018-02-13T06:36:20.232Z,29.12
2018-02-13T06:38:46.933Z,27.60
2018-02-13T06:41:13.613Z,27.87
2018-02-13T06:43:40.313Z,29.80
2018-02-13T06:46:07.071Z,27.75
2018-02-13T06:48:33.797Z,28.62
2018-02-13T06:51:00.479Z,30.05
2018-02-13T06:53:27.180Z,30.60
2018-02-13T06:55:53.802Z,29.80
2018-02-13T06:58:20.430Z,27.85
2018-02-13T07:00:47.056Z,28.60
2018-02-13T07:03:13.773Z,30.70
2018-02-13T07:05:40.413Z,28.92
2018-02-13T07:08:07.021Z,26.95
2018-02-13T07:10:33.654Z,27.85
2018-02-13T07:13:00.394Z,30.70
2018-02-13T07:15:27.034Z,28.40
2018-02-13T07:17:53.715Z,30.55
2018-02-13T07:20:20.322Z,29.87
2018-02-13T07:22:47.057Z,28.85
2018-02-13T07:25:13.688Z,25.90
2018-02-13T07:27:40.333Z,30.12
2018-02-13T07:30:06.968Z,27.25
2018-02-13T07:32:33.602Z,25.77
2018-02-13T07:35:00.213Z,33.38
2018-02-13T07:37:26.829Z,29.92
2018-02-13T07:39:53.525Z,29.60
2018-02-13T07:42:20.142Z,27.42
2018-02-13T07:44:46.800Z,28.42
2018-02-13T07:47:13.421Z,29.80
2018-02-13T07:49:40.084Z,26.55
2018-02-13T07:52:06.714Z,27.58
2018-02-13T07:54:33.329Z,26.08
2018-02-13T07:56:59.941Z,29.90
2018-02-13T07:59:26.632Z,25.98
2018-02-13T08:01:53.249Z,26.10
2018-02-13T08:04:19.866Z,26.40
2018-02-13T08:06:46.516Z,26.70
2018-02-13T08:09:13.134Z,26.10
2018-02-13T08:11:39.834Z,25.27
2018-02-13T08:14:06.457Z,28.73
2018-02-13T08:16:33.106Z,26.10
2018-02-13T08:18:59.833Z,25.12
2018-02-13T08:21:26.494Z,25.25
2018-02-13T08:23:53.172Z,27.35
2018-02-13T08:26:19.784Z,25.23
2018-02-13T08:28:46.401Z,25.90
2018-02-13T08:31:13.029Z,24.90
2018-02-13T08:33:39.728Z,24.60
2018-02-13T08:36:06.429Z,24.80
2018-02-13T08:38:33.070Z,25.20
2018-02-13T08:40:59.752Z,25.83
2018-02-13T08:43:26.378Z,25.65
2018-02-13T08:45:52.989Z,26.30
2018-02-13T08:48:19.629Z,25.35
2018-02-13T08:50:46.365Z,26.02
2018-02-13T08:53:13.900Z,24.90
2018-02-13T08:55:40.610Z,23.73
2018-02-13T08:58:07.217Z,24.25
2018-02-13T09:00:33.830Z,23.55
2018-02-13T09:03:00.446Z,25.05
2018-02-13T09:05:27.164Z,23.73
2018-02-13T09:07:53.777Z,24.92
2018-02-13T09:10:20.402Z,23.92
2018-02-13T09:12:47.028Z,24.63
2018-02-13T09:15:13.677Z,24.50
2018-02-13T09:17:40.306Z,25.77
2018-02-13T09:20:06.922Z,22.75
2018-02-13T09:22:33.568Z,24.20
2018-02-13T09:25:00.275Z,24.12
2018-02-13T09:27:26.886Z,24.87
2018-02-13T09:29:53.517Z,24.87
2018-02-13T09:32:20.155Z,22.33
2018-02-13T09:34:46.797Z,24.55
2018-02-13T09:37:13.457Z,23.90
2018-02-13T09:39:40.069Z,24.85
2018-02-13T09:42:06.710Z,22.90
2018-02-13T09:44:33.388Z,25.00
2018-02-13T09:47:00.089Z,23.05
2018-02-13T09:49:26.726Z,23.25
2018-02-13T09:51:53.365Z,23.33
2018-02-13T09:54:20.055Z,22.83
2018-02-13T09:56:46.666Z,21.80
2018-02-13T09:59:13.297Z,21.02
2018-02-13T10:01:39.912Z,21.25
2018-02-13T10:04:06.526Z,24.02
2018-02-13T10:06:33.196Z,22.95
2018-02-13T10:08:59.813Z,23.48
2018-02-13T10:11:26.421Z,21.42
2018-02-13T10:13:53.162Z,25.55
2018-02-13T10:16:19.771Z,20.95
2018-02-13T10:18:46.381Z,24.20
2018-02-13T10:21:13.014Z,22.52
2018-02-13T10:23:39.717Z,23.87
2018-02-13T10:26:06.417Z,21.85
2018-02-13T10:28:33.050Z,23.20
2018-02-13T10:30:59.736Z,21.77
2018-02-13T10:33:26.345Z,21.70
2018-02-13T10:35:53.081Z,21.15
2018-02-13T10:38:19.716Z,20.52
2018-02-13T10:40:46.353Z,20.60
2018-02-13T10:43:12.981Z,21.20
2018-02-13T10:45:39.592Z,19.35
2018-02-13T10:48:06.280Z,21.10
2018-02-13T10:50:32.953Z,22.13
2018-02-13T10:52:59.573Z,21.60
2018-02-13T10:55:26.191Z,20.42
2018-02-13T10:57:52.871Z,18.95
2018-02-13T11:00:19.493Z,18.48
2018-02-13T11:02:46.105Z,18.85
2018-02-13T11:05:12.758Z,15.95
2018-02-13T11:07:39.381Z,15.68
2018-02-13T11:10:05.993Z,15.15
2018-02-13T11:12:32.705Z,14.30
2018-02-13T11:14:59.308Z,15.52
2018-02-13T11:17:25.982Z,18.67
2018-02-13T11:19:52.606Z,18.85
2018-02-13T11:22:19.230Z,17.52
2018-02-13T11:24:45.845Z,17.27
2018-02-13T11:27:12.497Z,19.00
2018-02-13T11:29:39.109Z,18.77
2018-02-13T11:32:05.817Z,16.02
2018-02-13T11:34:32.533Z,17.75
2018-02-13T11:36:59.141Z,18.67
2018-02-13T11:39:25.808Z,17.92
2018-02-13T11:41:52.493Z,22.37
2018-02-13T11:44:19.217Z,15.90
2018-02-13T11:46:45.837Z,16.10
2018-02-13T11:49:12.453Z,15.52
2018-02-13T11:51:39.189Z,13.65
2018-02-13T11:54:05.838Z,16.37
2018-02-13T11:56:32.473Z,16.42
2018-02-13T11:58:59.154Z,13.13
2018-02-13T12:01:25.765Z,12.93
2018-02-13T12:03:52.382Z,12.25
2018-02-13T12:06:19.033Z,13.73
2018-02-13T12:08:45.710Z,11.52
2018-02-13T12:11:12.326Z,12.07
2018-02-13T12:13:38.950Z,9.93
2018-02-13T12:16:05.579Z,10.45
2018-02-13T12:18:32.271Z,12.37
2018-02-13T12:20:58.906Z,10.30
2018-02-13T12:23:25.605Z,11.68
2018-02-13T12:25:52.246Z,9.75
2018-02-13T12:28:18.868Z,10.25
2018-02-13T12:30:45.529Z,8.90
2018-02-13T12:33:12.134Z,10.00
2018-02-13T12:35:38.801Z,10.07
2018-02-13T12:38:05.441Z,10.00
2018-02-13T12:40:32.050Z,9.93
2018-02-13T12:42:58.762Z,9.52
2018-02-13T12:45:25.370Z,9.25
2018-02-13T12:47:51.993Z,9.10
2018-02-13T12:50:18.638Z,8.50
2018-02-13T12:52:45.277Z,7.32
2018-02-13T12:55:11.905Z,7.75
2018-02-13T12:57:38.595Z,7.90
2018-02-13T13:00:05.346Z,8.48
2018-02-13T13:02:31.974Z,8.15
2018-02-13T13:04:58.576Z,7.37
2018-02-13T13:07:25.213Z,8.40
2018-02-13T13:09:51.950Z,7.47
2018-02-13T13:12:18.598Z,6.62
2018-02-13T13:14:45.205Z,6.90
2018-02-13T13:17:11.829Z,6.68
2018-02-13T13:19:38.447Z,6.90
2018-02-13T13:22:05.058Z,7.32
2018-02-13T13:24:31.727Z,8.20
2018-02-13T13:26:58.365Z,5.22
2018-02-13T13:29:25.006Z,5.20
2018-02-13T13:31:51.625Z,6.35
2018-02-13T13:34:18.488Z,6.28
2018-02-13T13:36:45.185Z,5.82
2018-02-13T13:39:11.890Z,6.55
2018-02-13T13:41:38.817Z,5.70
2018-02-13T13:44:07.035Z,6.85
2018-02-13T13:46:35.270Z,7.20
2018-02-13T13:49:02.119Z,6.07
2018-02-13T13:51:28.983Z,7.10
2018-02-13T13:53:56.519Z,6.80
2018-02-13T13:56:27.457Z,9.75
2018-02-13T13:58:55.828Z,7.47
2018-02-13T14:01:24.279Z,7.57
2018-02-13T14:03:52.301Z,7.05
2018-02-13T14:08:49.620Z,7.80
2018-02-13T14:23:36.567Z,9.50
2018-02-13T14:38:14.965Z,5.25
2018-02-13T14:40:42.237Z,5.12
2018-02-13T14:43:10.423Z,4.90
2018-02-13T14:45:37.075Z,5.50
2018-02-13T14:48:03.693Z,5.55
2018-02-13T14:50:30.310Z,5.20
2018-02-13T14:52:57.006Z,5.03
2018-02-13T14:55:23.691Z,6.05
2018-02-13T14:57:50.302Z,6.18
2018-02-13T15:00:16.914Z,6.70
2018-02-13T15:02:43.566Z,6.07
2018-02-13T15:05:12.154Z,6.07
2018-02-13T15:07:38.765Z,6.45
2018-02-13T15:10:05.420Z,12.20
2018-02-13T15:12:32.026Z,8.88
2018-02-13T15:14:58.637Z,6.37
2018-02-13T15:17:30.998Z,9.45
2018-02-13T15:19:57.607Z,7.43
2018-02-13T15:22:24.297Z,9.15
2018-02-13T15:24:50.923Z,9.60
2018-02-13T15:27:17.524Z,6.00
2018-02-13T15:32:10.356Z,5.50
2018-02-13T15:34:37.037Z,5.40
2018-02-13T15:37:03.682Z,6.53
2018-02-13T15:39:30.285Z,4.15
2018-02-13T15:41:56.889Z,4.65
2018-02-13T15:44:23.523Z,5.00
2018-02-13T15:46:50.138Z,5.00
2018-02-13T15:49:16.737Z,5.80
2018-02-13T15:51:43.413Z,5.93
2018-02-13T15:54:10.050Z,5.50
2018-02-13T15:56:36.695Z,6.30
2018-02-13T15:59:03.322Z,8.60
2018-02-13T16:01:29.974Z,7.00
2018-02-13T16:03:56.573Z,8.63
2018-02-13T16:06:23.201Z,9.43
2018-02-13T16:08:49.814Z,9.30
2018-02-13T16:11:16.426Z,7.82
2018-02-13T16:13:43.106Z,7.60
2018-02-13T16:16:09.814Z,10.15
2018-02-13T16:18:36.429Z,7.28
2018-02-13T16:23:29.309Z,8.68
2018-02-13T16:25:55.918Z,9.57
2018-02-13T16:28:22.516Z,8.95
2018-02-13T16:30:49.140Z,9.98
2018-02-13T16:33:15.877Z,10.15
2018-02-13T16:35:42.506Z,9.63
2018-02-13T16:38:09.150Z,9.20
2018-02-13T16:40:35.767Z,10.85
2018-02-13T16:43:02.405Z,12.65
2018-02-13T16:45:29.065Z,15.65
2018-02-13T16:47:55.733Z,21.83
2018-02-13T16:50:22.411Z,22.17
2018-02-13T16:52:49.084Z,26.50
2018-02-13T16:55:15.710Z,33.95
2018-02-13T16:57:42.337Z,38.40
2018-02-13T17:00:08.974Z,24.60
2018-02-13T17:02:35.591Z,18.73
2018-02-13T17:05:02.202Z,15.60
2018-02-13T17:07:28.918Z,11.57
2018-02-13T17:09:55.528Z,13.88
2018-02-13T17:12:22.145Z,15.90
2018-02-13T17:14:48.781Z,14.93
2018-02-13T17:17:15.473Z,14.80
2018-02-13T17:19:42.082Z,27.30
2018-02-13T17:22:08.713Z,14.35
2018-02-13T17:24:35.327Z,15.93
2018-02-13T17:27:02.062Z,14.13
2018-02-13T17:29:28.681Z,16.12
2018-02-13T17:31:55.301Z,15.50
2018-02-13T17:34:21.913Z,15.10
2018-02-13T17:36:48.554Z,13.40
2018-02-13T17:39:15.165Z,16.67
2018-02-13T17:41:41.867Z,13.00
2018-02-13T17:44:08.501Z,16.73
2018-02-13T17:46:35.244Z,30.60
2018-02-13T17:49:01.888Z,29.63
2018-02-13T17:51:28.537Z,27.75
2018-02-13T17:53:55.166Z,22.27
2018-02-13T17:56:21.804Z,17.25
2018-02-13T17:58:48.490Z,16.95
2018-02-13T18:01:15.109Z,15.20
2018-02-13T18:03:41.712Z,15.00
2018-02-13T18:06:08.337Z,14.02
2018-02-13T18:08:34.966Z,15.40
2018-02-13T18:11:01.572Z,13.98
2018-02-13T18:13:28.180Z,16.77
2018-02-13T18:15:54.813Z,14.98
2018-02-13T18:18:21.453Z,14.40
2018-02-13T18:20:48.061Z,13.93
2018-02-13T18:23:14.690Z,17.42
2018-02-13T18:25:41.305Z,16.75
2018-02-13T18:28:07.958Z,18.70
2018-02-13T18:30:34.585Z,20.00
2018-02-13T18:33:01.285Z,24.80
2018-02-13T18:35:27.926Z,22.40
2018-02-13T18:37:54.565Z,17.08
2018-02-13T18:40:21.205Z,16.25
2018-02-13T19:26:28.419Z,15.20
2018-02-13T19:28:55.039Z,14.40
2018-02-13T19:31:21.661Z,15.23
2018-02-13T19:33:48.285Z,15.20
2018-02-13T19:36:14.961Z,14.15
2018-02-13T19:38:41.579Z,15.40
2018-02-13T19:41:08.245Z,16.17
2018-02-13T19:43:34.882Z,13.48
2018-02-13T19:46:01.514Z,14.20
2018-02-13T19:48:28.124Z,13.73
2018-02-13T19:50:54.793Z,13.75
2018-02-13T19:53:21.542Z,15.95
2018-02-13T19:55:48.161Z,14.80
2018-02-13T19:58:14.773Z,15.38
2018-02-13T20:00:41.457Z,14.13
2018-02-13T20:03:08.070Z,14.60
2018-02-13T20:05:34.729Z,15.18
2018-02-13T20:08:01.357Z,16.02
2018-02-13T20:10:28.050Z,17.33
2018-02-13T20:12:54.673Z,16.73
2018-02-13T20:15:21.289Z,15.93
2018-02-13T20:17:47.930Z,15.52
2018-02-13T20:20:14.560Z,15.35
2018-02-13T20:22:41.180Z,15.75
2018-02-13T20:25:07.807Z,15.77
2018-02-13T20:27:34.434Z,14.63
2018-02-13T20:30:01.163Z,15.73
2018-02-13T20:32:27.866Z,14.60
2018-02-13T20:34:54.502Z,15.38
2018-02-13T20:37:21.138Z,16.27
2018-02-13T20:39:47.762Z,14.68
2018-02-13T20:42:14.416Z,15.52
2018-02-13T20:44:41.053Z,16.12
2018-02-13T20:47:07.685Z,15.13
2018-02-13T20:49:34.301Z,16.20
2018-02-13T20:52:00.974Z,16.52
2018-02-13T20:54:27.606Z,16.92
2018-02-13T20:56:54.295Z,17.77
2018-02-13T20:59:21.002Z,16.52
2018-02-13T21:01:47.614Z,14.45
2018-02-13T21:04:14.221Z,13.77
2018-02-13T21:06:40.853Z,17.17
2018-02-13T21:09:07.473Z,16.90
2018-02-13T21:11:34.197Z,15.98
2018-02-13T21:14:00.837Z,16.30
2018-02-13T21:16:27.451Z,16.15
2018-02-13T21:18:54.082Z,23.58
2018-02-13T21:21:20.751Z,19.90
2018-02-13T21:23:47.428Z,20.73
2018-02-13T21:26:14.136Z,21.67
2018-02-13T21:28:40.754Z,22.95
2018-02-13T21:31:07.370Z,21.70
2018-02-13T21:33:34.045Z,22.27
2018-02-13T21:36:00.675Z,20.58
2018-02-13T21:38:27.330Z,19.52
2018-02-13T21:40:54.004Z,22.15
2018-02-13T21:43:20.710Z,20.60
2018-02-13T21:45:47.330Z,22.87
2018-02-13T21:48:14.024Z,20.08
2018-02-13T21:50:40.766Z,23.05
2018-02-13T21:53:07.464Z,22.92
2018-02-13T21:55:34.145Z,22.80
2018-02-13T21:58:00.768Z,20.90
2018-02-13T22:00:27.385Z,21.70
2018-02-13T22:02:54.064Z,20.27
2018-02-13T22:05:20.761Z,21.40
2018-02-13T22:07:47.405Z,22.52
2018-02-13T22:10:14.021Z,24.77
2018-02-13T22:12:40.682Z,24.35
2018-02-13T22:15:07.328Z,23.75
2018-02-13T22:17:33.999Z,24.05
2018-02-13T22:20:00.705Z,25.98
2018-02-13T22:22:27.317Z,23.92
2018-02-13T22:24:54.021Z,23.35
2018-02-13T22:27:20.670Z,25.67
2018-02-13T22:29:47.261Z,24.45
2018-02-13T22:32:13.894Z,23.42
2018-02-13T22:34:40.501Z,24.65
2018-02-13T22:37:07.174Z,25.95
2018-02-13T22:39:33.797Z,25.17
2018-02-13T22:42:00.460Z,23.75
2018-02-13T22:44:27.089Z,25.85
2018-02-13T22:46:53.701Z,25.33
2018-02-13T22:49:20.314Z,25.45
2018-02-13T22:51:46.946Z,25.27
2018-02-13T22:54:13.645Z,24.42
2018-02-13T22:56:40.262Z,25.77
2018-02-13T22:59:06.929Z,25.55
2018-02-13T23:01:33.565Z,29.67
2018-02-13T23:04:00.193Z,34.80
2018-02-13T23:06:26.814Z,37.05
2018-02-13T23:08:53.486Z,38.35
2018-02-13T23:11:20.120Z,37.58
2018-02-13T23:13:46.756Z,37.50
2018-02-13T23:16:13.397Z,30.55
2018-02-13T23:18:40.021Z,30.00
2018-02-13T23:21:06.678Z,36.10
2018-02-13T23:23:33.290Z,32.58
2018-02-13T23:25:59.918Z,28.48
2018-02-13T23:28:26.525Z,28.80
2018-02-13T23:30:53.137Z,27.20
2018-02-13T23:33:19.770Z,25.98
2018-02-13T23:35:46.410Z,25.85
2018-02-13T23:38:13.059Z,23.95
2018-02-13T23:40:39.665Z,25.23
2018-02-13T23:43:06.330Z,25.55
2018-02-13T23:45:32.941Z,26.02
2018-02-13T23:47:59.569Z,23.70
2018-02-13T23:50:26.245Z,25.10
2018-02-13T23:52:52.885Z,23.05
2018-02-13T23:55:19.526Z,24.50
2018-02-13T23:57:46.133Z,25.83
